createdAt,value
2023-05-07T00:00:45.308Z,71.20
2023-05-07T00:03:12.898Z,71.10
2023-05-07T00:05:40.440Z,71.10
2023-05-07T00:08:07.520Z,71.20
2023-05-07T00:10:34.939Z,71.20
2023-05-07T00:13:02.175Z,71.20
2023-05-07T00:15:29.445Z,71.40
2023-05-07T00:17:56.833Z,71.30
2023-05-07T00:20:23.889Z,71.30
2023-05-07T00:22:51.420Z,71.60
2023-05-07T00:25:20.787Z,71.70
2023-05-07T00:27:48.102Z,71.60
2023-05-07T00:30:15.645Z,71.50
2023-05-07T00:32:43.324Z,71.20
2023-05-07T00:35:10.885Z,71.00
2023-05-07T00:37:38.182Z,71.10
2023-05-07T00:40:08.738Z,71.20
2023-05-07T00:42:36.445Z,71.00
2023-05-07T00:45:07.427Z,71.00
2023-05-07T00:47:35.043Z,71.00
2023-05-07T00:50:02.600Z,70.90
2023-05-07T00:52:30.422Z,70.80
2023-05-07T00:54:57.673Z,70.70
2023-05-07T00:57:26.675Z,70.60
2023-05-07T00:59:53.962Z,70.50
2023-05-07T01:02:21.494Z,70.10
2023-05-07T01:04:48.882Z,69.80
2023-05-07T01:07:16.608Z,69.90
2023-05-07T01:09:43.825Z,69.90
2023-05-07T01:12:11.618Z,69.90
2023-05-07T01:14:38.744Z,69.90
2023-05-07T01:17:06.014Z,70.20
2023-05-07T01:19:33.291Z,70.40
2023-05-07T01:22:05.970Z,70.20
2023-05-07T01:24:33.251Z,70.20
2023-05-07T01:27:00.983Z,70.30
2023-05-07T01:29:28.030Z,70.30
2023-05-07T01:31:56.029Z,70.20
2023-05-07T01:34:23.777Z,70.00
2023-05-07T01:36:51.058Z,69.80
2023-05-07T01:39:21.678Z,69.60
2023-05-07T01:41:51.479Z,69.60
2023-05-07T01:44:19.661Z,69.50
2023-05-07T01:46:48.688Z,69.70
2023-05-07T01:49:19.412Z,69.70
2023-05-07T01:51:46.465Z,69.40
2023-05-07T01:54:13.978Z,69.00
2023-05-07T01:56:41.551Z,68.90
2023-05-07T01:59:08.647Z,69.10
2023-05-07T02:01:35.989Z,69.20
2023-05-07T02:04:04.061Z,68.90
2023-05-07T02:06:32.190Z,69.00
2023-05-07T02:08:59.551Z,68.90
2023-05-07T02:11:27.091Z,68.90
2023-05-07T02:13:54.373Z,68.70
2023-05-07T02:16:23.144Z,68.60
2023-05-07T02:18:50.599Z,68.70
2023-05-07T02:21:20.113Z,68.70
2023-05-07T02:23:49.762Z,68.90
2023-05-07T02:26:17.312Z,69.10
2023-05-07T02:28:45.177Z,69.10
2023-05-07T02:31:12.265Z,68.90
2023-05-07T02:33:39.315Z,69.10
2023-05-07T02:36:07.422Z,69.10
2023-05-07T02:38:34.887Z,69.10
2023-05-07T02:41:02.398Z,69.40
2023-05-07T02:43:29.760Z,69.50
2023-05-07T02:46:07.449Z,69.10
2023-05-07T02:48:34.886Z,68.90
2023-05-07T02:51:02.497Z,68.90
2023-05-07T02:53:30.719Z,69.10
2023-05-07T02:55:58.936Z,69.20
2023-05-07T02:58:26.466Z,69.10
2023-05-07T03:00:54.501Z,69.10
2023-05-07T03:03:21.728Z,69.10
2023-05-07T03:05:51.026Z,69.40
2023-05-07T03:08:18.200Z,69.70
2023-05-07T03:10:47.785Z,69.80
2023-05-07T03:13:14.984Z,69.70
2023-05-07T03:15:42.272Z,69.60
2023-05-07T03:18:09.466Z,69.50
2023-05-07T03:20:37.797Z,69.10
2023-05-07T03:23:05.072Z,69.00
2023-05-07T03:25:32.983Z,69.20
2023-05-07T03:28:00.212Z,68.90
2023-05-07T03:30:27.285Z,68.70
2023-05-07T03:32:54.419Z,68.80
2023-05-07T03:35:22.255Z,69.10
2023-05-07T03:37:49.282Z,69.00
2023-05-07T03:40:16.544Z,69.00
2023-05-07T03:42:44.006Z,69.00
2023-05-07T03:45:11.309Z,69.30
2023-05-07T03:47:38.362Z,69.20
2023-05-07T03:50:06.207Z,69.10
2023-05-07T03:52:33.362Z,69.10
2023-05-07T03:55:02.354Z,69.40
2023-05-07T03:57:30.885Z,69.40
2023-05-07T03:59:57.942Z,69.40
2023-05-07T04:04:52.313Z,69.80
2023-05-07T04:07:19.561Z,69.80
2023-05-07T04:09:46.829Z,69.90
2023-05-07T04:12:13.950Z,70.00
2023-05-07T04:14:41.647Z,69.90
2023-05-07T04:17:11.157Z,69.90
2023-05-07T04:19:38.208Z,69.80
2023-05-07T04:22:05.435Z,69.70
2023-05-07T04:24:33.902Z,69.70
2023-05-07T04:27:00.937Z,69.70
2023-05-07T04:29:29.005Z,69.70
2023-05-07T04:31:58.504Z,69.70
2023-05-07T04:34:25.686Z,69.80
2023-05-07T04:36:53.170Z,69.80
2023-05-07T04:39:20.288Z,69.70
2023-05-07T04:41:47.751Z,69.80
2023-05-07T04:44:15.005Z,69.80
2023-05-07T04:46:42.378Z,69.80
2023-05-07T04:49:09.769Z,69.80
2023-05-07T04:51:37.209Z,69.80
2023-05-07T04:54:04.150Z,69.90
2023-05-07T04:56:31.696Z,69.80
2023-05-07T04:58:58.856Z,69.80
2023-05-07T05:01:25.884Z,69.80
2023-05-07T05:03:53.006Z,69.80
2023-05-07T05:06:19.984Z,69.90
2023-05-07T05:08:47.395Z,70.00
2023-05-07T05:11:14.396Z,69.90
2023-05-07T05:13:41.572Z,69.90
2023-05-07T05:16:08.829Z,69.90
2023-05-07T05:18:36.078Z,69.90
2023-05-07T05:21:03.537Z,70.00
2023-05-07T05:23:30.832Z,70.00
2023-05-07T05:25:58.940Z,70.10
2023-05-07T05:28:26.000Z,70.20
2023-05-07T05:30:53.201Z,70.10
2023-05-07T05:33:20.875Z,70.10
2023-05-07T05:35:48.000Z,70.10
2023-05-07T05:38:15.283Z,70.10
2023-05-07T05:40:42.868Z,70.00
2023-05-07T05:43:10.406Z,70.00
2023-05-07T05:45:37.733Z,70.10
2023-05-07T05:48:05.052Z,70.00
2023-05-07T05:50:32.132Z,69.90
2023-05-07T05:53:00.481Z,69.90
2023-05-07T05:55:27.950Z,69.90
2023-05-07T05:57:55.189Z,69.90
2023-05-07T06:00:25.384Z,70.00
2023-05-07T06:02:52.796Z,70.00
2023-05-07T06:05:20.065Z,69.80
2023-05-07T06:07:47.734Z,69.90
2023-05-07T06:10:15.201Z,69.80
2023-05-07T06:12:42.467Z,69.80
2023-05-07T06:15:09.699Z,69.80
2023-05-07T06:17:36.990Z,69.80
2023-05-07T06:20:04.318Z,69.70
2023-05-07T06:22:31.432Z,69.80
2023-05-07T06:24:58.497Z,69.80
2023-05-07T06:27:25.996Z,69.80
2023-05-07T06:29:55.747Z,69.50
2023-05-07T06:32:22.877Z,69.40
2023-05-07T06:34:50.910Z,69.30
2023-05-07T06:37:17.987Z,69.00
2023-05-07T06:39:45.476Z,68.60
2023-05-07T06:42:12.982Z,66.70
2023-05-07T06:44:40.277Z,66.00
2023-05-07T06:47:07.746Z,66.00
2023-05-07T06:49:34.954Z,65.50
2023-05-07T06:52:02.195Z,65.70
2023-05-07T06:54:30.756Z,66.20
2023-05-07T06:56:58.074Z,65.50
2023-05-07T06:59:25.532Z,65.70
2023-05-07T07:01:53.048Z,65.60
2023-05-07T07:04:20.334Z,65.10
2023-05-07T07:06:48.451Z,65.30
2023-05-07T07:09:15.530Z,65.20
2023-05-07T07:11:42.656Z,65.20
2023-05-07T07:14:10.116Z,65.30
2023-05-07T07:16:37.241Z,64.50
2023-05-07T07:19:04.774Z,64.60
2023-05-07T07:21:32.043Z,64.60
2023-05-07T07:23:59.084Z,64.60
2023-05-07T07:26:26.290Z,64.30
2023-05-07T07:28:53.427Z,63.80
2023-05-07T07:31:22.934Z,63.70
2023-05-07T07:33:53.111Z,62.60
2023-05-07T07:36:21.009Z,62.70
2023-05-07T07:38:49.810Z,62.30
2023-05-07T07:41:16.911Z,61.80
2023-05-07T07:43:43.951Z,62.10
2023-05-07T07:46:10.936Z,61.90
2023-05-07T07:48:41.590Z,61.80
2023-05-07T07:51:09.032Z,62.20
2023-05-07T07:53:36.555Z,62.40
2023-05-07T07:56:07.043Z,62.10
2023-05-07T07:58:34.518Z,61.90
2023-05-07T08:01:01.708Z,62.00
2023-05-07T08:03:29.583Z,62.30
2023-05-07T08:06:05.440Z,62.30
2023-05-07T08:08:33.645Z,62.10
2023-05-07T08:11:01.110Z,61.90
2023-05-07T08:13:28.857Z,62.10
2023-05-07T08:15:56.421Z,61.80
2023-05-07T08:18:27.975Z,61.50
2023-05-07T08:20:55.599Z,61.60
2023-05-07T08:23:23.307Z,61.10
2023-05-07T08:25:51.809Z,60.20
2023-05-07T08:28:23.006Z,60.00
2023-05-07T08:30:54.527Z,60.00
2023-05-07T08:33:24.998Z,59.90
2023-05-07T08:35:52.228Z,59.90
2023-05-07T08:38:24.054Z,60.20
2023-05-07T08:40:52.246Z,60.30
2023-05-07T08:43:20.410Z,60.40
2023-05-07T08:45:50.061Z,60.40
2023-05-07T08:48:20.285Z,60.40
2023-05-07T08:50:50.642Z,60.20
2023-05-07T08:53:17.865Z,60.20
2023-05-07T08:55:45.149Z,60.10
2023-05-07T08:58:12.785Z,60.10
2023-05-07T09:00:41.105Z,58.10
2023-05-07T09:03:08.310Z,58.70
2023-05-07T09:05:35.383Z,58.80
2023-05-07T09:08:07.210Z,58.00
2023-05-07T09:10:35.339Z,57.90
2023-05-07T09:13:10.633Z,57.90
2023-05-07T09:15:37.755Z,58.00
2023-05-07T09:18:04.897Z,57.80
2023-05-07T09:20:38.360Z,57.60
2023-05-07T09:23:05.867Z,57.30
2023-05-07T09:25:33.643Z,56.90
2023-05-07T09:28:02.432Z,56.30
2023-05-07T09:30:33.051Z,56.70
2023-05-07T09:33:00.871Z,56.60
2023-05-07T09:35:28.826Z,56.80
2023-05-07T09:38:01.624Z,55.50
2023-05-07T09:40:32.019Z,55.80
2023-05-07T09:43:09.939Z,55.10
2023-05-07T09:45:38.100Z,54.90
2023-05-07T09:48:07.182Z,54.60
2023-05-07T09:50:37.559Z,54.10
2023-05-07T09:53:04.911Z,54.20
2023-05-07T09:55:32.668Z,53.50
2023-05-07T09:58:00.580Z,53.50
2023-05-07T10:00:29.548Z,52.80
2023-05-07T10:02:58.338Z,52.70
2023-05-07T10:05:26.470Z,52.60
2023-05-07T10:07:58.590Z,52.30
2023-05-07T10:10:26.122Z,52.10
2023-05-07T10:12:54.272Z,50.70
2023-05-07T10:15:22.373Z,49.30
2023-05-07T10:17:50.407Z,49.10
2023-05-07T10:20:17.883Z,49.90
2023-05-07T10:22:51.820Z,49.70
2023-05-07T10:25:49.176Z,50.00
2023-05-07T10:28:20.328Z,49.80
2023-05-07T10:31:07.874Z,49.30
2023-05-07T10:33:35.612Z,49.10
2023-05-07T10:36:05.784Z,48.90
2023-05-07T10:38:33.198Z,48.80
2023-05-07T10:41:00.475Z,48.20
2023-05-07T10:43:39.341Z,48.10
2023-05-07T10:46:13.906Z,48.20
2023-05-07T10:48:59.593Z,48.10
2023-05-07T10:51:26.742Z,48.00
2023-05-07T10:54:12.508Z,47.90
2023-05-07T10:56:40.312Z,47.70
2023-05-07T10:59:24.567Z,47.60
2023-05-07T11:01:58.369Z,47.20
2023-05-07T11:04:27.901Z,46.70
2023-05-07T11:07:07.423Z,46.20
2023-05-07T11:09:57.495Z,45.50
2023-05-07T11:12:40.048Z,45.60
2023-05-07T11:15:12.479Z,45.90
2023-05-07T11:17:56.949Z,46.00
2023-05-07T11:20:42.903Z,46.10
2023-05-07T11:23:10.022Z,46.40
2023-05-07T11:25:37.513Z,46.60
2023-05-07T11:28:11.694Z,46.00
2023-05-07T11:30:38.977Z,45.70
2023-05-07T11:33:06.781Z,45.90
2023-05-07T11:35:36.876Z,46.20
2023-05-07T11:38:04.981Z,46.20
2023-05-07T11:40:32.005Z,46.50
2023-05-07T11:43:03.212Z,47.00
2023-05-07T11:45:31.033Z,47.00
2023-05-07T11:47:58.525Z,47.10
2023-05-07T11:50:26.935Z,46.80
2023-05-07T11:52:54.776Z,47.00
2023-05-07T11:55:23.187Z,47.10
2023-05-07T11:57:50.862Z,46.90
2023-05-07T12:00:18.404Z,46.70
2023-05-07T12:02:47.277Z,46.20
2023-05-07T12:05:14.898Z,45.40
2023-05-07T12:08:04.740Z,46.00
2023-05-07T12:10:34.626Z,46.40
2023-05-07T12:13:02.177Z,46.60
2023-05-07T12:15:29.232Z,46.40
2023-05-07T12:17:56.473Z,46.60
2023-05-07T12:20:24.105Z,46.60
2023-05-07T12:22:53.713Z,46.00
2023-05-07T12:25:21.822Z,46.20
2023-05-07T12:27:52.993Z,46.50
2023-05-07T12:30:20.291Z,46.50
2023-05-07T12:32:47.509Z,46.60
2023-05-07T12:35:14.924Z,46.30
2023-05-07T12:37:42.398Z,45.60
2023-05-07T12:40:10.464Z,46.00
2023-05-07T12:42:38.075Z,46.20
2023-05-07T12:45:17.506Z,45.80
2023-05-07T12:47:46.326Z,46.40
2023-05-07T12:50:15.764Z,46.70
2023-05-07T12:52:45.663Z,47.10
2023-05-07T12:55:14.859Z,47.00
2023-05-07T12:57:43.813Z,46.20
2023-05-07T13:00:11.280Z,45.90
2023-05-07T13:02:42.367Z,46.50
2023-05-07T13:05:10.507Z,47.00
2023-05-07T13:07:39.068Z,47.60
2023-05-07T13:10:06.838Z,47.80
2023-05-07T13:12:34.028Z,47.70
2023-05-07T13:15:01.176Z,47.50
2023-05-07T13:17:28.645Z,47.30
2023-05-07T13:19:55.943Z,46.50
2023-05-07T13:22:23.776Z,46.80
2023-05-07T13:24:51.651Z,46.90
2023-05-07T13:27:21.986Z,47.10
2023-05-07T13:29:52.380Z,47.30
2023-05-07T13:32:22.544Z,46.50
2023-05-07T13:34:49.871Z,47.10
2023-05-07T13:37:17.077Z,47.50
2023-05-07T13:39:44.507Z,47.50
2023-05-07T13:42:15.133Z,47.50
2023-05-07T13:44:42.387Z,47.40
2023-05-07T13:47:09.664Z,47.70
2023-05-07T13:49:36.861Z,47.70
2023-05-07T13:52:04.113Z,47.80
2023-05-07T13:54:34.419Z,48.30
2023-05-07T13:57:04.564Z,48.40
2023-05-07T13:59:32.227Z,47.90
2023-05-07T14:02:00.857Z,48.30
2023-05-07T14:04:28.015Z,47.70
2023-05-07T14:06:55.298Z,47.60
2023-05-07T14:09:24.796Z,48.20
2023-05-07T14:11:55.250Z,48.70
2023-05-07T14:14:22.453Z,48.70
2023-05-07T14:16:53.559Z,48.80
2023-05-07T14:19:21.056Z,49.00
2023-05-07T14:21:48.342Z,49.00
2023-05-07T14:24:27.232Z,49.20
2023-05-07T14:27:01.921Z,49.70
2023-05-07T14:29:29.340Z,49.90
2023-05-07T14:31:56.870Z,50.20
2023-05-07T14:34:26.544Z,50.60
2023-05-07T14:36:54.041Z,50.50
2023-05-07T14:39:21.341Z,50.70
2023-05-07T14:41:48.760Z,50.90
2023-05-07T14:44:16.049Z,51.00
2023-05-07T14:46:44.621Z,51.00
2023-05-07T14:49:18.192Z,51.10
2023-05-07T14:51:46.996Z,51.00
2023-05-07T14:54:15.199Z,51.50
2023-05-07T14:56:43.201Z,51.50
2023-05-07T14:59:10.657Z,51.80
2023-05-07T15:01:37.921Z,51.80
2023-05-07T15:04:07.295Z,51.40
2023-05-07T15:06:35.204Z,51.40
2023-05-07T15:09:02.367Z,51.70
2023-05-07T15:11:30.003Z,51.90
2023-05-07T15:13:58.405Z,52.00
2023-05-07T15:16:25.906Z,52.20
2023-05-07T15:18:53.667Z,52.20
2023-05-07T15:21:21.207Z,52.40
2023-05-07T15:23:48.200Z,52.70
2023-05-07T15:26:15.524Z,53.10
2023-05-07T15:28:43.041Z,53.20
2023-05-07T15:31:10.457Z,53.20
2023-05-07T15:33:37.890Z,53.40
2023-05-07T15:36:09.328Z,53.10
2023-05-07T15:38:36.612Z,52.90
2023-05-07T15:41:04.398Z,53.10
2023-05-07T15:43:31.780Z,53.20
2023-05-07T15:45:59.240Z,53.40
2023-05-07T15:48:29.470Z,53.60
2023-05-07T15:50:59.756Z,53.70
2023-05-07T15:53:27.046Z,53.80
2023-05-07T15:55:54.212Z,53.80
2023-05-07T15:58:21.574Z,54.10
2023-05-07T16:00:51.413Z,54.10
2023-05-07T16:03:19.763Z,54.30
2023-05-07T16:05:47.587Z,54.70
2023-05-07T16:08:14.802Z,54.60
2023-05-07T16:10:42.363Z,54.70
2023-05-07T16:13:09.764Z,54.70
2023-05-07T16:15:36.917Z,54.90
2023-05-07T16:18:04.899Z,54.70
2023-05-07T16:20:35.769Z,54.70
2023-05-07T16:23:02.964Z,54.70
2023-05-07T16:25:32.716Z,54.90
2023-05-07T16:27:59.882Z,55.00
2023-05-07T16:30:27.412Z,55.20
2023-05-07T16:32:57.322Z,55.20
2023-05-07T16:35:24.796Z,55.30
2023-05-07T16:37:51.860Z,55.20
2023-05-07T16:40:22.106Z,55.40
2023-05-07T16:42:55.315Z,55.70
2023-05-07T16:45:25.201Z,55.70
2023-05-07T16:47:53.960Z,55.70
2023-05-07T16:50:21.131Z,55.70
2023-05-07T16:52:49.857Z,55.90
2023-05-07T16:55:19.028Z,55.80
2023-05-07T16:57:47.200Z,55.90
2023-05-07T17:00:14.788Z,55.80
2023-05-07T17:02:42.214Z,56.00
2023-05-07T17:05:09.735Z,56.00
2023-05-07T17:07:38.702Z,56.20
2023-05-07T17:10:06.932Z,56.30
2023-05-07T17:12:36.604Z,56.40
2023-05-07T17:15:04.469Z,56.50
2023-05-07T17:17:32.171Z,56.50
2023-05-07T17:20:01.862Z,56.60
2023-05-07T17:22:29.909Z,56.50
2023-05-07T17:24:57.583Z,56.70
2023-05-07T17:27:26.180Z,56.70
2023-05-07T17:30:07.150Z,56.50
2023-05-07T17:32:35.731Z,56.70
2023-05-07T17:35:03.962Z,56.80
2023-05-07T17:37:32.417Z,56.90
2023-05-07T17:40:00.290Z,56.90
2023-05-07T17:42:32.206Z,57.00
2023-05-07T17:44:59.267Z,57.10
2023-05-07T17:47:26.449Z,57.30
2023-05-07T17:49:54.198Z,57.40
2023-05-07T17:52:24.676Z,57.50
2023-05-07T17:54:52.037Z,57.40
2023-05-07T17:57:21.715Z,57.40
2023-05-07T17:59:52.507Z,57.60
2023-05-07T18:02:20.759Z,57.70
2023-05-07T18:04:50.430Z,57.50
2023-05-07T18:07:19.808Z,57.50
2023-05-07T18:09:46.835Z,57.50
2023-05-07T18:12:14.979Z,57.60
2023-05-07T18:14:42.595Z,57.80
2023-05-07T18:17:09.840Z,57.70
2023-05-07T18:19:37.080Z,57.70
2023-05-07T18:22:04.419Z,57.80
2023-05-07T18:24:34.041Z,57.90
2023-05-07T18:27:01.951Z,57.90
2023-05-07T18:29:29.128Z,58.00
2023-05-07T18:31:56.366Z,58.10
2023-05-07T18:34:24.112Z,58.20
2023-05-07T18:36:52.896Z,58.20
2023-05-07T18:39:21.408Z,58.20
2023-05-07T18:41:51.198Z,58.20
2023-05-07T18:44:19.958Z,57.90
2023-05-07T18:46:50.324Z,57.80
2023-05-07T18:49:18.010Z,57.70
2023-05-07T18:51:45.753Z,58.10
2023-05-07T18:54:13.486Z,58.20
2023-05-07T18:56:42.095Z,58.60
2023-05-07T18:59:09.240Z,58.60
2023-05-07T19:01:36.355Z,58.70
2023-05-07T19:04:04.019Z,58.90
2023-05-07T19:06:34.746Z,58.40
2023-05-07T19:09:02.476Z,58.30
2023-05-07T19:11:29.766Z,57.50
2023-05-07T19:14:06.950Z,57.30
2023-05-07T19:16:34.637Z,57.40
2023-05-07T19:19:04.845Z,57.40
2023-05-07T19:21:31.757Z,57.50
2023-05-07T19:23:58.918Z,57.70
2023-05-07T19:26:26.130Z,57.70
2023-05-07T19:29:06.707Z,57.60
2023-05-07T19:31:40.967Z,57.60
2023-05-07T19:34:13.488Z,57.70
2023-05-07T19:36:42.052Z,57.80
2023-05-07T19:39:10.375Z,58.30
2023-05-07T19:41:41.063Z,58.20
2023-05-07T19:44:09.670Z,58.00
2023-05-07T19:46:37.260Z,58.10
2023-05-07T19:49:04.587Z,57.90
2023-05-07T19:51:34.585Z,57.60
2023-05-07T19:54:02.174Z,57.70
2023-05-07T19:56:29.602Z,57.70
2023-05-07T19:58:57.151Z,57.30
2023-05-07T20:01:24.529Z,57.20
2023-05-07T20:03:54.458Z,57.10
2023-05-07T20:06:23.707Z,57.30
2023-05-07T20:08:52.701Z,57.50
2023-05-07T20:11:20.952Z,57.40
2023-05-07T20:13:48.891Z,57.30
2023-05-07T20:16:16.759Z,57.00
2023-05-07T20:18:44.002Z,57.10
2023-05-07T20:21:10.955Z,56.70
2023-05-07T20:23:38.121Z,56.30
2023-05-07T20:26:05.305Z,56.50
2023-05-07T20:28:32.270Z,55.90
2023-05-07T20:30:59.461Z,55.90
2023-05-07T20:33:27.683Z,55.90
2023-05-07T20:35:55.198Z,56.00
2023-05-07T20:38:22.399Z,56.00
2023-05-07T20:40:53.325Z,55.40
2023-05-07T20:43:22.808Z,55.70
2023-05-07T20:46:01.739Z,55.80
2023-05-07T20:48:31.018Z,55.80
2023-05-07T20:50:59.271Z,55.70
2023-05-07T20:53:28.292Z,56.00
2023-05-07T20:55:56.206Z,56.10
2023-05-07T20:58:28.738Z,55.70
2023-05-07T21:00:56.412Z,55.90
2023-05-07T21:03:24.385Z,55.50
2023-05-07T21:05:56.465Z,55.50
2023-05-07T21:08:24.053Z,55.40
2023-05-07T21:10:53.110Z,55.60
2023-05-07T21:13:20.956Z,55.40
2023-05-07T21:15:48.834Z,55.50
2023-05-07T21:18:16.673Z,55.00
2023-05-07T21:20:43.908Z,54.80
2023-05-07T21:23:11.081Z,55.30
2023-05-07T21:25:39.571Z,55.00
2023-05-07T21:28:09.751Z,55.10
2023-05-07T21:30:37.225Z,55.50
2023-05-07T21:33:06.993Z,55.70
2023-05-07T21:35:39.756Z,55.60
2023-05-07T21:38:09.915Z,55.60
2023-05-07T21:40:37.533Z,55.80
2023-05-07T21:43:05.223Z,55.40
2023-05-07T21:45:32.480Z,55.40
2023-05-07T21:48:02.800Z,55.40
2023-05-07T21:50:30.350Z,55.60
2023-05-07T21:52:57.806Z,55.40
2023-05-07T21:55:25.007Z,55.30
2023-05-07T21:58:04.227Z,55.30
2023-05-07T22:00:37.404Z,55.60
2023-05-07T22:03:04.744Z,55.80
2023-05-07T22:05:32.220Z,55.90
2023-05-07T22:08:02.514Z,56.10
2023-05-07T22:10:33.086Z,55.90
2023-05-07T22:13:01.247Z,56.20
2023-05-07T22:15:35.344Z,56.40
2023-05-07T22:18:04.888Z,56.60
2023-05-07T22:20:32.172Z,56.90
2023-05-07T22:23:03.208Z,56.30
2023-05-07T22:25:32.373Z,56.20
2023-05-07T22:27:59.514Z,56.30
2023-05-07T22:30:27.011Z,56.20
2023-05-07T22:32:58.021Z,56.60
2023-05-07T22:35:28.251Z,56.80
2023-05-07T22:37:55.229Z,57.20
2023-05-07T22:40:22.287Z,57.70
2023-05-07T22:42:52.183Z,57.80
2023-05-07T22:45:21.732Z,57.90
2023-05-07T22:47:51.756Z,58.00
2023-05-07T22:50:25.327Z,58.00
2023-05-07T22:52:52.392Z,57.80
2023-05-07T22:55:27.508Z,58.00
2023-05-07T22:57:54.788Z,58.00
2023-05-07T23:00:25.283Z,58.00
2023-05-07T23:02:52.999Z,58.10
2023-05-07T23:05:24.610Z,58.10
2023-05-07T23:07:52.204Z,58.00
2023-05-07T23:10:19.587Z,58.10
2023-05-07T23:12:49.716Z,58.10
2023-05-07T23:15:17.084Z,58.30
2023-05-07T23:17:44.855Z,58.20
2023-05-07T23:20:14.923Z,58.50
2023-05-07T23:22:45.342Z,58.40
2023-05-07T23:25:12.888Z,58.60
2023-05-07T23:27:40.063Z,58.60
2023-05-07T23:30:07.543Z,58.80
2023-05-07T23:32:34.845Z,58.90
2023-05-07T23:35:01.930Z,58.70
2023-05-07T23:37:28.992Z,58.80
2023-05-07T23:39:56.110Z,58.90
2023-05-07T23:42:23.601Z,58.80
2023-05-07T23:44:51.304Z,58.60
2023-05-07T23:47:20.820Z,58.40
2023-05-07T23:49:48.664Z,58.60
2023-05-07T23:52:15.725Z,59.00
2023-05-07T23:54:42.764Z,58.90
2023-05-07T23:57:10.268Z,58.70
2023-05-07T23:59:37.450Z,58.60
